Time;durP1;ratioP1;P1;durP2;ratioP2;P2;SDS_P1;SDS_P2;PMS_P1;PMS_P2;Temp;Humidity;BMP_temperature;BMP_pressure;BME280_temperature;BME280_humidity;BME280_pressure;Samples;Min_cycle;Max_cycle;Signal;HPM_P1;HPM_P2
2021/05/20 00:00:30;;;;;;;1.85;1.75;;;9.80;99.90;;;;;;5096005;28;20210;-39
2021/05/20 00:02:57;;;;;;;3.42;2.33;;;9.70;99.90;;;;;;5095525;28;20222;-38
2021/05/20 00:05:25;;;;;;;2.60;2.40;;;9.70;99.90;;;;;;5095747;28;20298;-41
2021/05/20 00:07:53;;;;;;;2.35;2.15;;;9.70;99.90;;;;;;5095587;28;20816;-39
2021/05/20 00:10:20;;;;;;;2.30;2.10;;;9.70;99.90;;;;;;5095335;28;20246;-39
2021/05/20 00:12:48;;;;;;;2.90;2.35;;;9.70;99.90;;;;;;5095398;28;20250;-38
2021/05/20 00:15:16;;;;;;;2.75;2.55;;;9.70;99.90;;;;;;5095368;28;20752;-39
2021/05/20 00:17:44;;;;;;;2.22;2.10;;;9.70;99.90;;;;;;5095503;28;20207;-39
2021/05/20 00:20:13;;;;;;;3.05;2.50;;;9.60;99.90;;;;;;5095444;28;20288;-39
2021/05/20 00:22:41;;;;;;;2.72;2.53;;;9.60;99.90;;;;;;5095363;28;20253;-39
2021/05/20 00:25:09;;;;;;;2.65;2.45;;;9.60;99.90;;;;;;5095150;28;20651;-38
2021/05/20 00:27:37;;;;;;;2.55;2.30;;;9.60;99.90;;;;;;5095253;28;20246;-39
2021/05/20 00:30:06;;;;;;;3.47;2.95;;;9.60;99.90;;;;;;5095272;28;20229;-41
2021/05/20 00:32:34;;;;;;;3.03;2.72;;;9.60;99.90;;;;;;5095040;28;20242;-39
2021/05/20 00:35:01;;;;;;;3.08;2.70;;;9.60;99.90;;;;;;5095094;28;20253;-39
2021/05/20 00:37:29;;;;;;;3.13;2.83;;;9.60;99.90;;;;;;5095053;28;20294;-38
2021/05/20 00:39:56;;;;;;;3.95;2.97;;;9.60;99.90;;;;;;5095145;28;20215;-39
2021/05/20 00:42:23;;;;;;;3.95;3.13;;;9.60;99.90;;;;;;5095099;28;20237;-39
2021/05/20 00:44:53;;;;;;;3.28;2.88;;;9.50;99.90;;;;;;5095124;28;20238;-39
2021/05/20 00:47:22;;;;;;;4.05;3.75;;;9.50;99.90;;;;;;5094744;28;20615;-38
2021/05/20 00:49:50;;;;;;;3.65;3.33;;;9.60;99.90;;;;;;5094801;28;20207;-39
2021/05/20 00:52:18;;;;;;;3.53;3.10;;;9.50;99.90;;;;;;5095195;28;20532;-39
2021/05/20 00:54:51;;;;;;;5.47;3.58;;;9.50;99.90;;;;;;5094864;28;20301;-39
2021/05/20 00:57:19;;;;;;;4.45;3.42;;;9.50;99.90;;;;;;5094730;28;20302;-40
2021/05/20 00:59:48;;;;;;;3.85;3.55;;;9.50;99.90;;;;;;5095039;28;20211;-39
2021/05/20 01:02:16;;;;;;;3.53;3.30;;;9.50;99.90;;;;;;5093956;28;20317;-40
2021/05/20 01:04:44;;;;;;;3.70;3.28;;;9.50;99.90;;;;;;5094495;28;20314;-39
2021/05/20 01:07:12;;;;;;;3.83;3.47;;;9.50;99.90;;;;;;5094624;28;20245;-39
2021/05/20 01:09:39;;;;;;;5.30;3.90;;;9.50;99.90;;;;;;5094454;28;20213;-38
2021/05/20 01:12:07;;;;;;;5.22;3.47;;;9.40;99.90;;;;;;5094359;28;20328;-39
2021/05/20 01:14:38;;;;;;;3.70;3.40;;;9.40;99.90;;;;;;5094395;28;20211;-39
2021/05/20 01:17:06;;;;;;;3.47;3.17;;;9.40;99.90;;;;;;5094383;28;20241;-40
2021/05/20 01:19:35;;;;;;;3.70;3.00;;;9.40;99.90;;;;;;5094522;28;20290;-40
2021/05/20 01:22:04;;;;;;;4.43;3.78;;;9.40;99.90;;;;;;5094037;28;20748;-38
2021/05/20 01:24:32;;;;;;;4.10;3.80;;;9.30;99.90;;;;;;5094300;28;20217;-39
2021/05/20 01:27:01;;;;;;;5.15;4.55;;;9.30;99.90;;;;;;5094326;28;20206;-38
2021/05/20 01:29:29;;;;;;;4.32;3.92;;;9.30;99.90;;;;;;5093953;28;20620;-39
2021/05/20 01:31:56;;;;;;;3.33;3.13;;;9.30;99.90;;;;;;5094284;28;20636;-39
2021/05/20 01:34:24;;;;;;;5.32;3.88;;;9.30;99.90;;;;;;5094159;28;20287;-38
2021/05/20 01:36:52;;;;;;;5.25;4.22;;;9.30;99.90;;;;;;5093850;28;20260;-38
2021/05/20 01:39:20;;;;;;;5.45;4.50;;;9.30;99.90;;;;;;5094033;28;20241;-39
2021/05/20 01:41:48;;;;;;;4.32;3.97;;;9.30;99.90;;;;;;5093965;28;20258;-39
2021/05/20 01:44:16;;;;;;;4.40;4.00;;;9.30;99.90;;;;;;5093611;28;20213;-39
2021/05/20 01:46:43;;;;;;;4.97;4.47;;;9.30;99.90;;;;;;5093846;28;20203;-39
2021/05/20 01:49:11;;;;;;;5.18;4.10;;;9.30;99.90;;;;;;5093754;28;20297;-39
2021/05/20 01:51:39;;;;;;;5.10;3.85;;;9.30;99.90;;;;;;5093421;28;20210;-38
2021/05/20 01:54:07;;;;;;;4.30;3.90;;;9.30;99.90;;;;;;5093625;28;20290;-39
2021/05/20 01:56:36;;;;;;;4.03;3.63;;;9.30;99.90;;;;;;5093477;28;20214;-39
2021/05/20 01:59:05;;;;;;;5.13;4.07;;;9.20;99.90;;;;;;5093688;28;20424;-39
2021/05/20 02:01:33;;;;;;;4.38;3.65;;;9.20;99.90;;;;;;5093538;28;20207;-39
2021/05/20 02:04:00;;;;;;;3.92;3.63;;;9.20;99.90;;;;;;5093483;28;20302;-40
2021/05/20 02:06:28;;;;;;;5.93;3.88;;;9.20;99.90;;;;;;5093324;28;20305;-39
2021/05/20 02:08:55;;;;;;;5.45;3.88;;;9.20;99.90;;;;;;5093445;28;20641;-39
2021/05/20 02:11:23;;;;;;;4.45;4.03;;;9.20;99.90;;;;;;5093113;28;20256;-39
2021/05/20 02:13:51;;;;;;;4.32;3.92;;;9.30;99.90;;;;;;5092201;28;20239;-39
2021/05/20 02:16:19;;;;;;;3.70;3.40;;;9.30;99.90;;;;;;5093319;28;20244;-38
2021/05/20 02:18:46;;;;;;;3.55;3.25;;;9.20;99.90;;;;;;5092957;28;20722;-39
2021/05/20 02:21:13;;;;;;;5.55;4.00;;;9.20;99.90;;;;;;5093139;28;20241;-39
2021/05/20 02:23:41;;;;;;;4.30;4.00;;;9.20;99.90;;;;;;5092935;28;20313;-39
2021/05/20 02:26:08;;;;;;;3.95;3.55;;;9.20;99.90;;;;;;5092935;28;20253;-39
2021/05/20 02:28:36;;;;;;;5.53;3.58;;;9.30;99.90;;;;;;5093114;28;20261;-38
2021/05/20 02:31:04;;;;;;;6.15;3.65;;;9.30;99.90;;;;;;5093127;28;20264;-39
2021/05/20 02:33:31;;;;;;;4.22;3.70;;;9.30;99.90;;;;;;5092852;28;20285;-42
2021/05/20 02:35:59;;;;;;;5.00;3.30;;;9.30;99.90;;;;;;5092912;28;20210;-39
2021/05/20 02:38:26;;;;;;;3.35;3.03;;;9.30;99.90;;;;;;5092748;28;20248;-38
2021/05/20 02:40:54;;;;;;;4.25;3.85;;;9.30;99.90;;;;;;5092841;28;20213;-40
2021/05/20 02:43:21;;;;;;;3.90;3.15;;;9.30;99.90;;;;;;5092551;28;20318;-38
2021/05/20 02:45:49;;;;;;;4.18;3.17;;;9.30;99.90;;;;;;5092821;28;20264;-39
2021/05/20 02:48:17;;;;;;;4.93;3.03;;;9.30;99.90;;;;;;5092549;28;20309;-39
2021/05/20 02:50:45;;;;;;;5.35;3.83;;;9.30;99.90;;;;;;5092541;28;20252;-39
2021/05/20 02:53:12;;;;;;;2.55;2.35;;;9.30;99.90;;;;;;5092756;28;20202;-38
2021/05/20 02:55:40;;;;;;;4.20;2.88;;;9.30;99.90;;;;;;5092379;28;20586;-39
2021/05/20 02:58:07;;;;;;;2.60;2.35;;;9.20;99.90;;;;;;5092581;28;20207;-39
2021/05/20 03:00:37;;;;;;;4.15;2.17;;;9.20;99.90;;;;;;5092426;28;20206;-39
2021/05/20 03:03:05;;;;;;;2.80;2.10;;;9.20;99.90;;;;;;5092296;28;20254;-39
2021/05/20 03:05:33;;;;;;;2.53;2.20;;;9.20;99.90;;;;;;5092355;28;20260;-38
2021/05/20 03:08:01;;;;;;;3.00;2.00;;;9.20;99.90;;;;;;5092256;28;20224;-39
2021/05/20 03:10:28;;;;;;;2.85;1.80;;;9.20;99.90;;;;;;5092414;28;20206;-39
2021/05/20 03:12:56;;;;;;;2.17;1.98;;;9.10;99.90;;;;;;5092107;28;20246;-39
2021/05/20 03:15:24;;;;;;;3.60;2.13;;;9.10;99.90;;;;;;5092118;28;20245;-39
2021/05/20 03:17:51;;;;;;;3.25;1.80;;;9.00;99.90;;;;;;5092168;28;20248;-39
2021/05/20 03:20:19;;;;;;;2.30;1.77;;;9.00;99.90;;;;;;5092391;28;20260;-38
2021/05/20 03:22:48;;;;;;;1.88;1.75;;;8.90;99.90;;;;;;5091967;28;20664;-39
2021/05/20 03:25:16;;;;;;;2.08;1.88;;;8.90;99.90;;;;;;5091814;28;20737;-40
2021/05/20 03:27:44;;;;;;;2.22;2.03;;;8.90;99.90;;;;;;5092207;28;20510;-39
2021/05/20 03:30:13;;;;;;;1.65;1.52;;;8.80;99.90;;;;;;5092122;28;20289;-39
2021/05/20 03:32:40;;;;;;;2.33;1.70;;;8.80;99.90;;;;;;5091974;28;20593;-39
2021/05/20 03:35:09;;;;;;;4.25;2.00;;;8.70;99.90;;;;;;5092199;28;20209;-39
2021/05/20 03:37:37;;;;;;;2.10;1.90;;;8.70;99.90;;;;;;5092108;28;20637;-39
2021/05/20 03:40:06;;;;;;;2.70;2.45;;;8.70;99.90;;;;;;5091990;28;20206;-38
2021/05/20 03:42:35;;;;;;;2.63;2.33;;;8.60;99.90;;;;;;5091753;28;20249;-39
2021/05/20 03:45:03;;;;;;;2.63;2.40;;;8.60;99.90;;;;;;5091614;28;20261;-38
2021/05/20 03:47:31;;;;;;;2.28;1.90;;;8.70;99.90;;;;;;5091819;28;20242;-39
2021/05/20 03:49:58;;;;;;;2.78;2.13;;;8.60;99.90;;;;;;5091905;28;20202;-40
2021/05/20 03:52:26;;;;;;;3.50;2.08;;;8.60;99.90;;;;;;5091667;28;20293;-38
2021/05/20 03:54:54;;;;;;;2.72;2.53;;;8.60;99.90;;;;;;5091750;28;20211;-38
2021/05/20 03:57:22;;;;;;;2.60;2.40;;;8.60;99.90;;;;;;5091678;28;20632;-38
2021/05/20 03:59:51;;;;;;;2.28;2.10;;;8.60;99.90;;;;;;5091874;28;20214;-39
2021/05/20 04:02:18;;;;;;;3.70;2.78;;;8.60;99.90;;;;;;5090882;28;20290;-39
2021/05/20 04:04:46;;;;;;;2.55;2.33;;;8.60;99.90;;;;;;5090337;28;20211;-39
2021/05/20 04:07:13;;;;;;;2.92;2.58;;;8.60;99.90;;;;;;5091478;28;20633;-39
2021/05/20 04:09:40;;;;;;;2.83;2.63;;;8.60;99.90;;;;;;5091594;28;20206;-39
2021/05/20 04:12:09;;;;;;;3.50;2.63;;;8.60;99.90;;;;;;5091044;28;20210;-39
2021/05/20 04:14:37;;;;;;;4.82;2.80;;;8.60;99.90;;;;;;5091513;28;20738;-38
2021/05/20 04:17:04;;;;;;;3.92;2.97;;;8.60;99.90;;;;;;5091820;28;20321;-38
2021/05/20 04:19:32;;;;;;;4.05;2.70;;;8.70;99.90;;;;;;5090063;28;20280;-39
2021/05/20 04:21:59;;;;;;;4.15;3.35;;;8.60;99.90;;;;;;5090094;28;20252;-39
2021/05/20 04:24:27;;;;;;;3.60;2.92;;;8.70;99.90;;;;;;5090194;28;20234;-39
2021/05/20 04:26:55;;;;;;;6.32;3.67;;;8.70;99.90;;;;;;5090200;28;20207;-39
2021/05/20 04:29:23;;;;;;;3.22;2.90;;;8.80;99.90;;;;;;5090512;28;20238;-39
2021/05/20 04:31:51;;;;;;;3.55;3.25;;;8.80;99.90;;;;;;5091204;28;20298;-39
2021/05/20 04:34:18;;;;;;;5.55;3.72;;;8.80;99.90;;;;;;5090983;28;20210;-39
2021/05/20 04:36:46;;;;;;;6.20;4.28;;;8.90;99.90;;;;;;5092206;28;20246;-38
2021/05/20 04:39:13;;;;;;;2.97;2.78;;;8.90;99.90;;;;;;5094925;28;20598;-39
2021/05/20 04:41:42;;;;;;;5.70;3.75;;;8.90;99.90;;;;;;5095162;28;20306;-38
2021/05/20 04:44:09;;;;;;;3.70;3.40;;;9.00;99.90;;;;;;5095010;28;20226;-39
2021/05/20 04:46:37;;;;;;;3.10;2.80;;;9.00;99.90;;;;;;5094688;28;20242;-38
2021/05/20 04:49:11;;;;;;;3.40;3.10;;;9.10;99.90;;;;;;5094628;28;20203;-38
2021/05/20 04:51:40;;;;;;;3.58;3.28;;;9.20;99.90;;;;;;5094781;28;20271;-38
2021/05/20 04:54:07;;;;;;;7.15;6.15;;;9.30;99.90;;;;;;5094993;28;20289;-39
2021/05/20 04:56:35;;;;;;;5.50;3.90;;;9.40;99.90;;;;;;5094507;28;20225;-40
2021/05/20 04:59:03;;;;;;;6.63;3.30;;;9.40;99.90;;;;;;5094766;28;20234;-42
2021/05/20 05:01:32;;;;;;;4.63;4.13;;;9.50;99.90;;;;;;5094586;28;20689;-39
2021/05/20 05:04:00;;;;;;;3.95;3.58;;;9.50;99.90;;;;;;5094269;28;20226;-39
2021/05/20 05:06:28;;;;;;;3.72;3.35;;;9.50;99.90;;;;;;5094150;28;20207;-38
2021/05/20 05:08:56;;;;;;;3.95;3.38;;;9.60;99.90;;;;;;5094408;28;20264;-38
2021/05/20 05:11:24;;;;;;;3.83;3.53;;;9.70;99.90;;;;;;5094627;28;20211;-38
2021/05/20 05:13:51;;;;;;;5.15;4.05;;;9.80;99.90;;;;;;5094310;28;20230;-40
2021/05/20 05:16:18;;;;;;;3.38;3.08;;;9.90;99.90;;;;;;5094754;28;20611;-39
2021/05/20 05:18:46;;;;;;;3.55;3.25;;;9.90;99.90;;;;;;5094370;28;20301;-39
2021/05/20 05:21:13;;;;;;;5.53;3.10;;;9.90;99.90;;;;;;5094460;28;20241;-39
2021/05/20 05:23:42;;;;;;;3.92;3.50;;;9.90;99.90;;;;;;5094137;28;20222;-39
2021/05/20 05:26:09;;;;;;;3.60;3.30;;;10.00;99.90;;;;;;5093840;28;20255;-39
2021/05/20 05:28:37;;;;;;;3.85;3.45;;;10.10;99.90;;;;;;5094237;28;20635;-39
2021/05/20 05:31:04;;;;;;;3.25;2.95;;;10.10;99.90;;;;;;5093920;28;20260;-39
2021/05/20 05:33:31;;;;;;;3.83;3.47;;;10.10;99.90;;;;;;5094272;28;20234;-39
2021/05/20 05:35:59;;;;;;;2.90;2.53;;;10.10;99.90;;;;;;5093924;28;20630;-40
2021/05/20 05:38:26;;;;;;;3.20;3.00;;;10.20;99.90;;;;;;5093842;28;20305;-39
2021/05/20 05:40:55;;;;;;;4.22;3.15;;;10.30;99.90;;;;;;5094160;28;20202;-39
2021/05/20 05:43:22;;;;;;;3.40;3.10;;;10.40;99.90;;;;;;5093482;28;20408;-41
2021/05/20 05:45:49;;;;;;;3.30;3.00;;;10.50;99.90;;;;;;5093259;28;20289;-39
2021/05/20 05:48:17;;;;;;;6.50;3.00;;;10.60;99.90;;;;;;5093655;28;20202;-42
2021/05/20 05:50:46;;;;;;;5.40;3.50;;;10.50;99.90;;;;;;5093484;28;20612;-39
2021/05/20 05:53:27;;;;;;;3.50;2.83;;;10.50;99.90;;;;;;5093818;28;20236;-38
2021/05/20 05:55:56;;;;;;;4.88;3.13;;;10.60;99.90;;;;;;5093659;28;20249;-39
2021/05/20 05:58:23;;;;;;;2.72;2.53;;;10.70;99.90;;;;;;5093516;28;20203;-39
2021/05/20 06:04:31;;;;;;;3.22;2.60;;;10.90;99.90;;;;;;5093431;28;20271;-39
2021/05/20 06:07:00;;;;;;;2.85;2.58;;;11.00;99.90;;;;;;5093568;28;20244;-41
2021/05/20 06:09:29;;;;;;;2.88;2.42;;;11.10;99.90;;;;;;5093291;28;20305;-40
2021/05/20 06:11:58;;;;;;;2.50;2.30;;;11.20;99.90;;;;;;5093231;28;20280;-40
2021/05/20 06:14:25;;;;;;;4.18;2.40;;;11.20;99.90;;;;;;5093186;28;20329;-39
2021/05/20 06:16:52;;;;;;;2.42;2.10;;;11.30;99.90;;;;;;5093293;28;20285;-40
2021/05/20 06:19:20;;;;;;;3.50;2.40;;;11.50;99.90;;;;;;5092418;28;20211;-39
2021/05/20 06:21:47;;;;;;;2.58;2.22;;;11.80;99.90;;;;;;5092110;28;20297;-39
2021/05/20 06:24:15;;;;;;;2.13;2.00;;;12.00;99.90;;;;;;5091806;28;20262;-39
2021/05/20 06:26:42;;;;;;;2.17;2.00;;;12.20;99.90;;;;;;5092135;28;20689;-40
2021/05/20 06:29:10;;;;;;;2.55;2.10;;;12.30;99.90;;;;;;5091330;28;20210;-40
2021/05/20 06:31:38;;;;;;;2.40;2.20;;;12.40;99.90;;;;;;5091879;28;20306;-40
2021/05/20 06:34:05;;;;;;;2.47;2.28;;;12.30;99.90;;;;;;5091753;28;20207;-39
2021/05/20 06:36:32;;;;;;;3.00;2.17;;;12.20;99.90;;;;;;5092804;28;20230;-39
2021/05/20 06:39:00;;;;;;;2.22;2.08;;;12.00;99.90;;;;;;5092746;28;20306;-39
2021/05/20 06:41:27;;;;;;;2.10;1.90;;;11.90;99.90;;;;;;5092704;28;20213;-39
2021/05/20 06:43:55;;;;;;;2.42;2.22;;;12.00;99.90;;;;;;5092572;28;20669;-39
2021/05/20 06:46:23;;;;;;;2.50;2.17;;;12.10;99.90;;;;;;5092475;28;20242;-40
2021/05/20 06:48:50;;;;;;;2.40;1.95;;;12.20;99.90;;;;;;5092578;28;20288;-39
2021/05/20 06:51:18;;;;;;;2.65;2.10;;;12.30;99.90;;;;;;5092552;28;20361;-39
2021/05/20 06:53:49;;;;;;;2.08;1.50;;;12.30;99.90;;;;;;5092596;28;20339;-39
2021/05/20 06:56:18;;;;;;;2.15;1.55;;;12.40;99.90;;;;;;5092490;28;20211;-40
2021/05/20 07:01:46;;;;;;;1.80;1.70;;;12.60;99.90;;;;;;5029604;28;20299;-39
2021/05/20 07:04:15;;;;;;;5.20;1.80;;;12.80;99.90;;;;;;5079255;28;20313;-42
2021/05/20 07:06:42;;;;;;;3.88;2.30;;;12.90;99.90;;;;;;5092371;28;20210;-39
2021/05/20 07:09:25;;;;;;;1.95;1.42;;;13.00;99.90;;;;;;5092298;28;20208;-39
2021/05/20 07:11:52;;;;;;;2.90;2.13;;;13.00;99.90;;;;;;5092113;28;20252;-39
2021/05/20 07:14:20;;;;;;;13.25;2.45;;;12.90;99.90;;;;;;5091260;28;20709;-39
2021/05/20 07:16:48;;;;;;;2.00;1.63;;;12.90;99.90;;;;;;5091915;28;20602;-39
2021/05/20 07:19:19;;;;;;;1.40;1.00;;;13.00;99.90;;;;;;5091857;28;20616;-40
2021/05/20 07:21:46;;;;;;;1.45;1.35;;;13.00;99.90;;;;;;5091683;28;20636;-40
2021/05/20 07:24:14;;;;;;;2.20;1.60;;;13.10;99.90;;;;;;5091763;28;20226;-40
2021/05/20 07:26:42;;;;;;;3.78;1.55;;;13.10;99.90;;;;;;5091768;28;20615;-40
2021/05/20 07:29:09;;;;;;;1.55;1.40;;;13.30;99.90;;;;;;5091867;28;20230;-42
2021/05/20 07:31:37;;;;;;;2.15;1.25;;;13.40;99.80;;;;;;5091645;28;20741;-40
2021/05/20 07:34:06;;;;;;;2.13;1.73;;;13.50;99.60;;;;;;5091746;28;20238;-43
2021/05/20 07:36:34;;;;;;;3.17;1.52;;;13.60;99.60;;;;;;5092016;28;20225;-40
2021/05/20 07:39:01;;;;;;;2.65;1.25;;;13.70;99.40;;;;;;5092022;28;20620;-40
2021/05/20 07:41:30;;;;;;;1.48;1.20;;;13.70;99.00;;;;;;5091954;28;20230;-41
2021/05/20 07:43:57;;;;;;;2.13;1.38;;;13.50;99.10;;;;;;5091663;28;20652;-40
2021/05/20 07:46:25;;;;;;;1.40;1.23;;;13.70;99.20;;;;;;5091762;28;20209;-40
2021/05/20 07:48:52;;;;;;;2.03;1.42;;;13.80;98.90;;;;;;5091539;28;20701;-40
2021/05/20 07:51:21;;;;;;;5.63;1.73;;;13.90;98.50;;;;;;5091686;28;20210;-40
2021/05/20 07:53:48;;;;;;;1.50;1.30;;;14.10;98.30;;;;;;5091689;28;20691;-39
2021/05/20 07:56:15;;;;;;;1.40;1.30;;;14.10;98.10;;;;;;5091824;28;20253;-41
2021/05/20 07:58:44;;;;;;;1.70;1.33;;;14.00;98.20;;;;;;5091586;28;20242;-40
2021/05/20 08:01:12;;;;;;;1.42;1.30;;;14.10;98.20;;;;;;5091481;28;20202;-40
2021/05/20 08:03:43;;;;;;;3.17;1.90;;;14.10;98.10;;;;;;5091384;28;20283;-41
2021/05/20 08:06:14;;;;;;;1.90;1.20;;;14.20;97.90;;;;;;5091771;28;20290;-39
2021/05/20 08:08:53;;;;;;;1.33;1.10;;;14.40;97.70;;;;;;5092361;28;20211;-39
2021/05/20 08:11:22;;;;;;;3.97;1.20;;;14.60;97.40;;;;;;5091473;28;20238;-40
2021/05/20 08:13:49;;;;;;;2.42;1.20;;;14.70;97.10;;;;;;5094908;28;20241;-40
2021/05/20 08:16:17;;;;;;;1.10;1.00;;;14.90;96.80;;;;;;5095683;28;20629;-41
2021/05/20 08:18:45;;;;;;;5.70;1.60;;;15.10;96.10;;;;;;5095582;28;20230;-40
2021/05/20 08:21:12;;;;;;;1.67;1.30;;;15.20;96.00;;;;;;5095280;28;20213;-40
2021/05/20 08:23:40;;;;;;;0.95;0.80;;;15.40;95.60;;;;;;5094794;28;20653;-40
2021/05/20 08:26:12;;;;;;;2.65;1.10;;;15.50;95.10;;;;;;5094710;28;20649;-40
2021/05/20 08:28:39;;;;;;;1.65;1.20;;;15.50;94.90;;;;;;5095080;28;20219;-40
2021/05/20 08:31:07;;;;;;;1.30;1.13;;;15.40;94.80;;;;;;5095201;28;20206;-41
2021/05/20 08:33:34;;;;;;;1.63;1.13;;;15.10;94.90;;;;;;5094884;28;20609;-39
2021/05/20 08:36:02;;;;;;;1.08;0.98;;;14.90;95.20;;;;;;5095396;28;20230;-43
2021/05/20 08:38:30;;;;;;;1.88;0.98;;;14.50;95.60;;;;;;5095022;28;20203;-40
2021/05/20 08:40:58;;;;;;;1.52;1.00;;;14.30;96.10;;;;;;5094570;28;20249;-40
2021/05/20 08:43:26;;;;;;;1.30;1.20;;;14.10;96.20;;;;;;5094714;28;20338;-40
2021/05/20 08:45:54;;;;;;;1.10;0.95;;;14.10;96.30;;;;;;5094751;28;20338;-40
2021/05/20 08:48:22;;;;;;;2.35;1.20;;;14.40;95.90;;;;;;5094521;28;20557;-40
2021/05/20 08:50:50;;;;;;;0.93;0.80;;;14.70;95.20;;;;;;5094604;28;20237;-41
2021/05/20 08:53:17;;;;;;;2.38;1.25;;;15.10;94.70;;;;;;5094403;28;20206;-40
2021/05/20 08:55:45;;;;;;;1.70;1.17;;;15.20;94.20;;;;;;5094646;28;20281;-40
2021/05/20 08:58:12;;;;;;;1.35;0.93;;;15.20;94.10;;;;;;5094666;28;20214;-40
2021/05/20 09:00:41;;;;;;;2.05;0.70;;;15.20;94.00;;;;;;5094592;28;20545;-40
2021/05/20 09:03:10;;;;;;;1.00;0.80;;;15.10;93.50;;;;;;5094688;28;20522;-39
2021/05/20 09:05:38;;;;;;;2.30;0.80;;;14.90;93.70;;;;;;5094066;28;20223;-40
2021/05/20 09:08:08;;;;;;;1.08;0.88;;;14.60;93.90;;;;;;5094123;28;20746;-40
2021/05/20 09:10:37;;;;;;;1.08;0.90;;;14.40;94.50;;;;;;5094239;28;20246;-40
2021/05/20 09:13:06;;;;;;;1.77;1.67;;;14.20;94.80;;;;;;5093873;28;20338;-40
2021/05/20 09:15:36;;;;;;;1.20;1.10;;;14.10;94.90;;;;;;5094006;28;20695;-40
2021/05/20 09:18:13;;;;;;;1.10;1.00;;;14.00;95.00;;;;;;5094057;28;20298;-40
2021/05/20 09:20:43;;;;;;;2.05;0.80;;;13.90;95.00;;;;;;5094328;28;20210;-43
2021/05/20 09:23:12;;;;;;;0.65;0.60;;;14.00;95.00;;;;;;5093736;28;20270;-40
2021/05/20 09:25:41;;;;;;;0.80;0.57;;;14.30;94.70;;;;;;5093959;28;20234;-41
2021/05/20 09:28:10;;;;;;;1.60;0.77;;;14.60;94.20;;;;;;5093903;28;20578;-40
2021/05/20 09:30:40;;;;;;;0.88;0.77;;;15.00;93.60;;;;;;5093790;28;20210;-40
2021/05/20 09:33:09;;;;;;;0.70;0.68;;;15.20;93.10;;;;;;5094024;28;20654;-41
2021/05/20 09:35:39;;;;;;;3.22;0.65;;;15.50;92.00;;;;;;5093516;28;20695;-40
2021/05/20 09:38:11;;;;;;;2.33;1.90;;;15.70;91.50;;;;;;5093877;28;20210;-40
2021/05/20 09:40:40;;;;;;;1.70;0.60;;;15.80;91.30;;;;;;5093753;28;20214;-42
2021/05/20 09:43:15;;;;;;;0.80;0.73;;;15.80;90.90;;;;;;5093554;28;20302;-41
2021/05/20 09:45:43;;;;;;;0.60;0.60;;;15.90;90.40;;;;;;5093666;28;20261;-41
2021/05/20 09:48:11;;;;;;;1.00;0.90;;;16.00;90.30;;;;;;5093591;28;20252;-41
2021/05/20 09:50:43;;;;;;;1.23;0.70;;;16.20;90.00;;;;;;5093577;28;20267;-41
2021/05/20 09:53:14;;;;;;;0.68;0.68;;;16.30;89.50;;;;;;5093428;28;20257;-41
2021/05/20 09:55:48;;;;;;;0.95;0.60;;;16.60;88.60;;;;;;5093188;28;20230;-40
2021/05/20 09:58:15;;;;;;;0.77;0.65;;;16.90;87.90;;;;;;5093514;28;20606;-40
2021/05/20 10:00:43;;;;;;;0.65;0.65;;;17.00;87.10;;;;;;5093360;28;20639;-39
2021/05/20 10:03:13;;;;;;;0.60;0.60;;;17.00;85.80;;;;;;5093294;28;20665;-40
2021/05/20 10:05:42;;;;;;;0.85;0.57;;;17.00;85.80;;;;;;5093039;28;20746;-40
2021/05/20 10:08:13;;;;;;;2.88;0.47;;;16.70;84.90;;;;;;5092939;28;20263;-40
2021/05/20 10:10:42;;;;;;;1.00;0.68;;;16.50;85.10;;;;;;5093099;28;20222;-40
2021/05/20 10:13:12;;;;;;;0.52;0.50;;;16.30;85.90;;;;;;5092931;28;20273;-40
2021/05/20 10:15:40;;;;;;;0.70;0.50;;;16.00;87.30;;;;;;5093198;28;20297;-40
2021/05/20 10:18:09;;;;;;;0.70;0.57;;;15.80;88.50;;;;;;5093434;28;20289;-40
2021/05/20 10:20:38;;;;;;;1.08;0.60;;;15.40;89.10;;;;;;5092783;28;20310;-41
2021/05/20 10:23:08;;;;;;;1.83;0.70;;;15.20;90.40;;;;;;5093172;28;20209;-40
2021/05/20 10:25:37;;;;;;;3.15;0.98;;;14.90;92.10;;;;;;5092892;28;20227;-40
2021/05/20 10:28:06;;;;;;;2.80;1.17;;;14.40;95.00;;;;;;5092798;28;20210;-40
2021/05/20 10:30:35;;;;;;;1.08;0.98;;;13.90;97.50;;;;;;5092998;28;20254;-39
2021/05/20 10:33:04;;;;;;;1.60;1.00;;;13.40;98.80;;;;;;5092909;28;20234;-39
2021/05/20 10:35:43;;;;;;;1.20;1.10;;;13.00;99.90;;;;;;5091840;28;20761;-42
2021/05/20 10:38:13;;;;;;;1.23;0.90;;;12.60;99.90;;;;;;5093106;28;20242;-40
2021/05/20 10:40:41;;;;;;;2.00;0.80;;;12.30;99.90;;;;;;5092775;28;20619;-39
2021/05/20 10:43:11;;;;;;;1.35;0.95;;;12.20;99.90;;;;;;5092607;28;20214;-40
2021/05/20 10:45:40;;;;;;;2.17;1.52;;;12.10;99.90;;;;;;5092764;28;20227;-40
2021/05/20 10:48:21;;;;;;;1.42;1.25;;;12.00;99.90;;;;;;5093032;28;20298;-40
2021/05/20 10:51:17;;;;;;;2.40;2.20;;;12.20;99.90;;;;;;5092929;28;20680;-40
2021/05/20 10:53:50;;;;;;;1.67;1.35;;;12.40;99.90;;;;;;5086309;28;20210;-39
2021/05/20 10:56:58;;;;;;;2.38;1.20;;;12.60;99.90;;;;;;5092255;28;20738;-42
2021/05/20 10:59:37;;;;;;;1.15;1.00;;;13.00;99.90;;;;;;5092451;28;20294;-40
2021/05/20 11:02:12;;;;;;;1.27;1.10;;;13.10;99.90;;;;;;5092067;28;20760;-40
2021/05/20 11:04:42;;;;;;;1.23;1.13;;;13.30;99.90;;;;;;5091874;28;20226;-39
2021/05/20 11:07:10;;;;;;;1.10;1.00;;;13.50;99.90;;;;;;5092235;28;20210;-39
2021/05/20 11:09:46;;;;;;;0.77;0.77;;;13.70;99.90;;;;;;5092243;28;20319;-39
2021/05/20 11:12:14;;;;;;;1.17;1.08;;;13.80;99.90;;;;;;5092031;28;20289;-39
2021/05/20 11:14:49;;;;;;;3.45;1.02;;;13.90;99.90;;;;;;5091980;28;20317;-39
2021/05/20 11:17:37;;;;;;;0.73;0.70;;;13.90;99.90;;;;;;5092009;28;20206;-41
2021/05/20 11:20:27;;;;;;;2.28;0.80;;;13.80;99.90;;;;;;5092247;28;20233;-42
2021/05/20 11:23:30;;;;;;;0.47;0.47;;;13.80;99.90;;;;;;5091252;28;20210;-39
2021/05/20 11:26:12;;;;;;;1.40;0.95;;;13.80;99.90;;;;;;5091615;28;20255;-40
2021/05/20 11:28:48;;;;;;;1.17;0.93;;;13.80;99.90;;;;;;5092026;28;20214;-39
2021/05/20 11:31:21;;;;;;;1.73;1.35;;;13.70;99.90;;;;;;5091982;28;20217;-41
2021/05/20 11:34:07;;;;;;;1.48;0.75;;;13.70;99.90;;;;;;5091832;28;20207;-39
2021/05/20 11:36:39;;;;;;;0.82;0.70;;;13.80;99.90;;;;;;5092131;28;20244;-39
2021/05/20 11:39:08;;;;;;;1.00;0.90;;;13.90;99.90;;;;;;5092249;28;20238;-39
2021/05/20 11:41:39;;;;;;;0.75;0.75;;;14.10;99.90;;;;;;5092024;28;20206;-41
2021/05/20 11:44:11;;;;;;;0.68;0.68;;;14.20;99.90;;;;;;5091136;28;20211;-40
2021/05/20 11:46:41;;;;;;;0.70;0.70;;;14.50;99.90;;;;;;5093956;28;20349;-39
2021/05/20 11:49:19;;;;;;;0.50;0.50;;;14.70;99.80;;;;;;5095911;28;20202;-39
2021/05/20 11:51:52;;;;;;;0.93;0.70;;;14.90;99.30;;;;;;5096369;28;20213;-39
2021/05/20 11:54:21;;;;;;;1.13;0.80;;;15.00;98.70;;;;;;5096153;28;20663;-40
2021/05/20 11:56:52;;;;;;;1.70;1.10;;;15.20;98.50;;;;;;5095863;28;20249;-40
2021/05/20 11:59:42;;;;;;;1.25;0.82;;;15.30;97.90;;;;;;5095854;28;20206;-40
2021/05/20 12:02:12;;;;;;;0.80;0.70;;;15.30;97.80;;;;;;5095459;28;20578;-40
2021/05/20 12:04:40;;;;;;;0.55;0.50;;;15.30;97.50;;;;;;5094543;28;20211;-40
2021/05/20 12:07:17;;;;;;;0.35;0.35;;;15.40;97.60;;;;;;5093680;28;20210;-40
2021/05/20 12:09:50;;;;;;;1.27;0.50;;;15.40;96.40;;;;;;5095715;28;20253;-40
2021/05/20 12:12:19;;;;;;;0.43;0.43;;;15.40;96.40;;;;;;5095369;28;20207;-40
2021/05/20 12:14:49;;;;;;;0.50;0.50;;;15.30;96.00;;;;;;5095533;28;20315;-40
2021/05/20 12:17:19;;;;;;;0.65;0.50;;;15.30;96.00;;;;;;5095415;28;20202;-40
2021/05/20 12:19:48;;;;;;;1.25;0.65;;;15.40;95.50;;;;;;5095490;28;20210;-41
2021/05/20 12:22:19;;;;;;;0.60;0.43;;;15.40;95.20;;;;;;5095387;28;20210;-40
2021/05/20 12:24:50;;;;;;;0.80;0.45;;;15.50;94.80;;;;;;5096136;28;20277;-40
2021/05/20 12:27:25;;;;;;;2.38;0.55;;;15.50;94.70;;;;;;5095184;28;20260;-40
2021/05/20 12:29:54;;;;;;;1.75;0.40;;;15.60;94.40;;;;;;5095045;28;20244;-41
2021/05/20 12:32:30;;;;;;;0.45;0.45;;;15.70;93.90;;;;;;5095018;28;20202;-40
2021/05/20 12:35:17;;;;;;;0.60;0.55;;;15.70;93.70;;;;;;5095129;28;20210;-40
2021/05/20 12:37:47;;;;;;;0.75;0.50;;;15.80;93.20;;;;;;5095097;28;20211;-40
2021/05/20 12:40:17;;;;;;;2.90;0.50;;;15.90;92.80;;;;;;5094924;28;20677;-40
2021/05/20 12:43:03;;;;;;;0.50;0.50;;;15.90;92.30;;;;;;5094736;28;20602;-39
2021/05/20 12:45:32;;;;;;;0.40;0.40;;;16.00;92.20;;;;;;5094823;28;20248;-40
2021/05/20 12:48:00;;;;;;;0.68;0.55;;;16.10;92.10;;;;;;5094974;28;20221;-39
2021/05/20 12:50:29;;;;;;;3.58;0.90;;;16.20;91.70;;;;;;5094896;28;20295;-39
2021/05/20 12:52:58;;;;;;;0.65;0.50;;;16.20;91.10;;;;;;5094734;28;20211;-41
2021/05/20 12:55:37;;;;;;;0.90;0.50;;;16.20;90.70;;;;;;5094721;28;20245;-40
2021/05/20 12:58:07;;;;;;;0.70;0.57;;;16.40;90.30;;;;;;5094012;28;20225;-41
2021/05/20 13:00:56;;;;;;;0.40;0.40;;;16.50;89.60;;;;;;5094733;28;20230;-39
2021/05/20 13:03:25;;;;;;;2.08;0.60;;;16.80;88.20;;;;;;5094519;28;20252;-40
2021/05/20 13:05:56;;;;;;;58.85;5.93;;;17.20;89.30;;;;;;5094121;28;20265;-40
2021/05/20 13:08:25;;;;;;;3.13;0.90;;;17.60;87.10;;;;;;5094558;28;20210;-43